Thunder radar more information blitzortung!


Radar de pluja more information rain snow radar


Visita la nostra xarxa de llocs de meteo:

Template documentation
and downloads

And another site



No particular awareness of the weather is required.    There are no Weather-warnings

Pagina Historial Weather Underground text

Diari Resum May 9, 2017 Unitats:  Mètric    Imperial   Tant
« Previous Dia
SegĂźent Dia »
Diari Setmana Mensual Anual Personalitzada
  Maxima: Minima: Media:
Temperatura: -17.8 °C -12.1 °C -7.9 °C
Punt de rosada: -17.8 °C -14.3 °C -12.1 °C
Humitat: Humidity % 36 % 63 %
Wind Speed: 0 km/h 0 km/h 10.8 km/h
RĂ fegues de vent: 0 km/h - -
Vent:- - SE
Pression baro: 0 hPa 34063.2 hPa -
Precipitacions: 0 mm    
Historical Graphs
 
 
Dades de taula per May 9, 2017
Temps Temperatura Punt de rosada Pression baro Vent Wind Speed RĂ fegues de vent Humitat Rainfall Rate (Hourly)
-17.8 °C -17.8 °C 0 hPa Calm     Humidity % 0 mm
00:00 -9.7 °C -13.3 °C 34395 hPa Calm     65 % 0 mm
00:05 -9.7 °C -13.3 °C 34395 hPa Calm     65 % 0 mm
00:10 -11.7 °C -14 °C 34327.3 hPa Calm   5.1 km/h 76 % 0 mm
00:20 -11.7 °C -14 °C 34327.3 hPa SW 2.6 km/h 2.6 km/h 76 % 0 mm
00:30 -11.8 °C -14.1 °C 34327.3 hPa Calm     76 % 0 mm
00:40 -11.8 °C -14.1 °C 34327.3 hPa Calm     76 % 0 mm
00:50 -11.9 °C -14.1 °C 34327.3 hPa SW 2.6 km/h 2.6 km/h 76 % 0 mm
01:00 -11.9 °C -14.1 °C 34327.3 hPa WSW 2.6 km/h 5.1 km/h 76 % 0 mm
01:10 -11.9 °C -14.1 °C 34327.3 hPa Calm     77 % 0 mm
01:20 -11.9 °C -14.1 °C 34327.3 hPa Calm     77 % 0 mm
01:30 -11.9 °C -14.1 °C 34327.3 hPa Calm     77 % 0 mm
01:40 -11.9 °C -14.1 °C 34327.3 hPa Calm     77 % 0 mm
01:50 -12.1 °C -14.3 °C 34293.4 hPa Calm     77 % 0 mm
02:00 -12.1 °C -14.3 °C 34293.4 hPa WSW 2.6 km/h 5.1 km/h 77 % 0 mm
02:10 -12.1 °C -14.1 °C 34327.3 hPa SW 2.6 km/h 5.1 km/h 78 % 0 mm
02:20 -12.1 °C -14.1 °C 34361.1 hPa SW 2.6 km/h 5.1 km/h 78 % 0 mm
02:30 -12 °C -14.1 °C 34361.1 hPa SW 2.6 km/h 2.6 km/h 78 % 0 mm
02:40 -11.9 °C -13.9 °C 34293.4 hPa SW 2.6 km/h 5.1 km/h 78 % 0 mm
02:50 -11.6 °C -13.7 °C 34327.3 hPa SW 2.6 km/h 5.1 km/h 78 % 0 mm
03:00 -11.4 °C -13.6 °C 34327.3 hPa SW 2.6 km/h 7.7 km/h 77 % 0 mm
03:10 -11.1 °C -13.2 °C 34327.3 hPa Calm   5.1 km/h 77 % 0 mm
03:20 -10.7 °C -12.9 °C 34327.3 hPa Calm   5.1 km/h 77 % 0 mm
03:30 -10.1 °C -12.4 °C 34327.3 hPa Calm   2.6 km/h 76 % 0 mm
03:40 -10.3 °C -12.7 °C 34327.3 hPa SW 5.1 km/h 5.1 km/h 75 % 0 mm
03:50 -9.9 °C -12.4 °C 34327.3 hPa Calm   5.1 km/h 75 % 0 mm
04:00 -9.6 °C -12.2 °C 34327.3 hPa SSW 2.6 km/h 5.1 km/h 73 % 0 mm
04:10 -9.7 °C -12.4 °C 34327.3 hPa ESE 5.1 km/h 10.3 km/h 72 % 0 mm
04:20 -9.5 °C -12.4 °C 34327.3 hPa ESE 5.1 km/h 7.7 km/h 71 % 0 mm
04:30 -9.2 °C -12.1 °C 34327.3 hPa East 5.1 km/h 5.1 km/h 71 % 0 mm
04:40 -9.1 °C -12.1 °C 34327.3 hPa East 5.1 km/h 10.3 km/h 70 % 0 mm
04:50 -8.7 °C -11.9 °C 34327.3 hPa East 5.1 km/h 12.9 km/h 69 % 0 mm
05:00 -8.4 °C -11.7 °C 34327.3 hPa ENE 7.7 km/h 10.3 km/h 68 % 0 mm
05:10 -8.4 °C -11.8 °C 34327.3 hPa East 5.1 km/h 15.6 km/h 68 % 0 mm
05:20 -8.1 °C -11.5 °C 34327.3 hPa ESE 5.1 km/h 15.6 km/h 67 % 0 mm
05:30 -8 °C -11.7 °C 34327.3 hPa East 7.7 km/h 10.3 km/h 65 % 0 mm
05:40 -7.5 °C -11.2 °C 34327.3 hPa ESE 7.7 km/h 7.7 km/h 65 % 0 mm
05:50 -7.5 °C -11.3 °C 34327.3 hPa ESE 7.7 km/h 12.9 km/h 64 % 0 mm
06:00 -7.7 °C -11.6 °C 34327.3 hPa ESE 7.7 km/h 15.6 km/h 63 % 0 mm
11:02 -7.3 °C -11.3 °C 34327.3 hPa ENE 10.3 km/h 10.3 km/h 63 % 0 mm
11:07 -7.5 °C -11.5 °C 34327.3 hPa NNE 15 km/h 15 km/h 63 % 0 mm
11:12 -7.4 °C -11.5 °C 34327.3 hPa SE 15 km/h 15 km/h 62 % 0 mm
11:17 -7.2 °C -11.3 °C 34327.3 hPa NE 9 km/h 9 km/h 62 % 0 mm
11:22 -7.2 °C -11.6 °C 34327.3 hPa SE 17.9 km/h 17.9 km/h 60 % 0 mm
11:27 -7.3 °C -11.4 °C 34327.3 hPa ENE 11.9 km/h 11.9 km/h 62 % 0 mm
11:32 -6.9 °C -11.2 °C 34327.3 hPa East 11.9 km/h 11.9 km/h 61 % 0 mm
11:37 -6.9 °C -11.3 °C 34327.3 hPa ESE 9.3 km/h 9.3 km/h 60 % 0 mm
11:42 -7.1 °C -11.5 °C 34293.4 hPa ESE 6.8 km/h 6.8 km/h 60 % 0 mm
11:47 -6.8 °C -11.2 °C 34293.4 hPa ENE 9 km/h 9 km/h 60 % 0 mm
11:52 -6.9 °C -11.5 °C 34293.4 hPa East 15 km/h 15 km/h 59 % 0 mm
11:57 -6.5 °C -11.2 °C 34293.4 hPa SSE 9.8 km/h 9.8 km/h 58 % 0 mm
12:02 -6.4 °C -11.2 °C 34293.4 hPa ESE 9 km/h 9 km/h 58 % 0 mm
12:07 -6.7 °C -11.3 °C 34293.4 hPa East 11.9 km/h 11.9 km/h 59 % 0 mm
12:12 -6.5 °C -11.2 °C 34256.2 hPa SSE 15 km/h 15 km/h 58 % 0 mm
12:17 -6.4 °C -11.3 °C 34256.2 hPa ESE 12.7 km/h 12.7 km/h 57 % 0 mm
12:22 -6.5 °C -11.4 °C 34256.2 hPa NNE 17.9 km/h 17.9 km/h 57 % 0 mm
12:27 -6.2 °C -11.2 °C 34256.2 hPa ENE 9.8 km/h 9.8 km/h 57 % 0 mm
12:32 -5.9 °C -10.9 °C 34256.2 hPa SSE 9 km/h 9 km/h 56 % 0 mm
12:37 -6 °C -11.4 °C 34256.2 hPa ESE 15 km/h 15 km/h 54 % 0 mm
12:42 -6.2 °C -11.4 °C 34256.2 hPa South 20.9 km/h 20.9 km/h 55 % 0 mm
12:47 -6.3 °C -11.4 °C 34256.2 hPa ESE 17.9 km/h 17.9 km/h 56 % 0 mm
12:52 -6.4 °C -11.6 °C 34256.2 hPa East 17.9 km/h 17.9 km/h 55 % 0 mm
12:57 -6.4 °C -11.6 °C 34256.2 hPa East 23.8 km/h 23.8 km/h 55 % 0 mm
13:02 -6.5 °C -11.7 °C 34256.2 hPa East 20.9 km/h 20.9 km/h 55 % 0 mm
13:07 -6.4 °C -11.6 °C 34256.2 hPa ESE 26.9 km/h 26.9 km/h 55 % 0 mm
13:12 -6.3 °C -11.5 °C 34256.2 hPa SSE 23.8 km/h 23.8 km/h 55 % 0 mm
13:17 -6.4 °C -11.6 °C 34256.2 hPa East 29.8 km/h 29.8 km/h 55 % 0 mm
13:22 -6.5 °C -11.7 °C 34256.2 hPa East 26.9 km/h 26.9 km/h 55 % 0 mm
13:27 -6.6 °C -11.7 °C 34256.2 hPa ENE 29.8 km/h 29.8 km/h 55 % 0 mm
13:32 -6.4 °C -11.6 °C 34256.2 hPa ESE 17.9 km/h 17.9 km/h 55 % 0 mm
13:37 -6.3 °C -11.3 °C 34256.2 hPa SSE 20.9 km/h 20.9 km/h 56 % 0 mm
13:42 -6.1 °C -11.3 °C 34256.2 hPa SSE 17.9 km/h 17.9 km/h 55 % 0 mm
13:47 -6.2 °C -11.4 °C 34256.2 hPa ESE 20.9 km/h 20.9 km/h 55 % 0 mm
13:52 -6.2 °C -11.4 °C 34256.2 hPa SE 20.9 km/h 20.9 km/h 55 % 0 mm
13:53 -6.2 °C -11.4 °C 34256.2 hPa ESE 23.8 km/h 23.8 km/h 55 % 0 mm
13:58 -6.5 °C -11.7 °C 34256.2 hPa SSW 20.9 km/h 20.9 km/h 55 % 0 mm
14:03 -6.4 °C -11.6 °C 34256.2 hPa SE 23.8 km/h 23.8 km/h 55 % 0 mm
14:08 -6.4 °C -11.8 °C 34256.2 hPa SE 23.8 km/h 23.8 km/h 54 % 0 mm
14:13 -6.4 °C -11.6 °C 34222.3 hPa SE 23.8 km/h 23.8 km/h 55 % 0 mm
14:18 -6.4 °C -11.6 °C 34222.3 hPa SE 11.9 km/h 11.9 km/h 55 % 0 mm
14:23 -6.4 °C -11.7 °C 34222.3 hPa East 26.9 km/h 26.9 km/h 54 % 0 mm
14:28 -6.3 °C -11.5 °C 34198.6 hPa ESE 11.9 km/h 11.9 km/h 55 % 0 mm
14:33 -6.2 °C -11.4 °C 34198.6 hPa ENE 15 km/h 15 km/h 55 % 0 mm
14:38 -6.3 °C -11.7 °C 34198.6 hPa NNE 23.8 km/h 23.8 km/h 54 % 0 mm
14:43 -6.2 °C -11.4 °C 34198.6 hPa NNE 12.7 km/h 12.7 km/h 55 % 0 mm
14:48 -6.3 °C -11.6 °C 34198.6 hPa SE 23.8 km/h 23.8 km/h 54 % 0 mm
14:53 -6.1 °C -11.6 °C 34198.6 hPa ESE 20.9 km/h 20.9 km/h 53 % 0 mm
14:58 -6.2 °C -11.6 °C 34164.7 hPa ENE 26.9 km/h 26.9 km/h 54 % 0 mm
15:03 -6.2 °C -11.6 °C 34164.7 hPa SSE 31.4 km/h 31.4 km/h 54 % 0 mm
15:08 -6.1 °C -11.6 °C 34164.7 hPa ESE 23.8 km/h 23.8 km/h 53 % 0 mm
15:13 -6.1 °C -11.6 °C 34198.6 hPa ENE 17.9 km/h 17.9 km/h 53 % 0 mm
15:18 -5.9 °C -11.5 °C 34198.6 hPa SSE 11.9 km/h 11.9 km/h 53 % 0 mm
15:23 -6 °C -11.7 °C 34198.6 hPa ENE 32.8 km/h 32.8 km/h 52 % 0 mm
15:28 -5.8 °C -11.6 °C 34198.6 hPa ESE 15 km/h 15 km/h 52 % 0 mm
15:33 -5.9 °C -11.5 °C 34198.6 hPa ENE 18.3 km/h 18.3 km/h 53 % 0 mm
15:38 -5.9 °C -11.6 °C 34198.6 hPa NNE 11.9 km/h 11.9 km/h 52 % 0 mm
15:43 -5.6 °C -11.2 °C 34198.6 hPa SSW 17.9 km/h 17.9 km/h 53 % 0 mm
15:48 -5.2 °C -11.4 °C 34198.6 hPa SSW 11.9 km/h 11.9 km/h 49 % 0 mm
15:50 -4.9 °C -11.4 °C 34198.6 hPa SW 6 km/h 6 km/h 48 % 0 mm
15:55 -4.6 °C -11.2 °C 34198.6 hPa South 9 km/h 9 km/h 47 % 0 mm
16:00 -4.4 °C -11.3 °C 34198.6 hPa West 11.9 km/h 11.9 km/h 46 % 0 mm
16:05 -4.4 °C -11.8 °C 34198.6 hPa SW 17.9 km/h 17.9 km/h 43 % 0 mm
16:10 -4.3 °C -11.5 °C 34198.6 hPa SW 15 km/h 15 km/h 44 % 0 mm
16:15 -4.2 °C -12 °C 34198.6 hPa SSW 11.9 km/h 11.9 km/h 41 % 0 mm
16:20 -4.3 °C -12.4 °C 34198.6 hPa South 15 km/h 15 km/h 40 % 0 mm
16:25 -4.2 °C -12.1 °C 34198.6 hPa SW 15.6 km/h 15.6 km/h 41 % 0 mm
16:30 -4.3 °C -12.3 °C 34164.7 hPa WSW 17.9 km/h 17.9 km/h 40 % 0 mm
16:35 -4.2 °C -12.4 °C 34164.7 hPa WSW 11.9 km/h 11.9 km/h 39 % 0 mm
16:40 -3.9 °C -12.2 °C 34164.7 hPa South 11.9 km/h 11.9 km/h 39 % 0 mm
16:45 -4.2 °C -12.7 °C 34164.7 hPa SW 9 km/h 9 km/h 38 % 0 mm
16:50 -4.2 °C -12.7 °C 34164.7 hPa SW 15 km/h 15 km/h 38 % 0 mm
16:55 -4.3 °C -12.7 °C 34164.7 hPa West 15 km/h 15 km/h 38 % 0 mm
17:00 -4.4 °C -12.9 °C 34130.9 hPa South 9.8 km/h 9.8 km/h 38 % 0 mm
17:05 -4.4 °C -13.1 °C 34130.9 hPa SW 15 km/h 15 km/h 37 % 0 mm
17:10 -4.5 °C -13.4 °C 34130.9 hPa West 9 km/h 9 km/h 36 % 0 mm
17:15 -4.6 °C -13.2 °C 34164.7 hPa SW 11.9 km/h 11.9 km/h 37 % 0 mm
17:20 -4.9 °C -13.1 °C 34164.7 hPa SSW 15 km/h 15 km/h 39 % 0 mm
17:25 -5.4 °C -12.6 °C 34164.7 hPa ENE 15.6 km/h 15.6 km/h 44 % 0 mm
17:30 -5.8 °C -12.3 °C 34130.9 hPa East 17.9 km/h 17.9 km/h 47 % 0 mm
17:35 -6.1 °C -12.4 °C 34130.9 hPa NE 20.9 km/h 20.9 km/h 48 % 0 mm
17:40 -6.1 °C -12.3 °C 34130.9 hPa SE 16.6 km/h 16.6 km/h 49 % 0 mm
17:45 -6.2 °C -12 °C 34130.9 hPa ESE 17.9 km/h 17.9 km/h 51 % 0 mm
17:50 -6.2 °C -12.1 °C 34130.9 hPa ESE 23.8 km/h 23.8 km/h 51 % 0 mm
17:51 -6.2 °C -12.1 °C 34130.9 hPa ESE 26.9 km/h 26.9 km/h 51 % 0 mm
17:56 -6.3 °C -11.9 °C 34130.9 hPa SE 22 km/h 22 km/h 52 % 0 mm
18:01 -6.3 °C -11.9 °C 34130.9 hPa ESE 26.9 km/h 26.9 km/h 52 % 0 mm
18:06 -6.4 °C -11.9 °C 34130.9 hPa SSW 20.9 km/h 20.9 km/h 53 % 0 mm
18:11 -6.1 °C -11.9 °C 34130.9 hPa ESE 9 km/h 9 km/h 51 % 0 mm
18:16 -5.7 °C -11.8 °C 34130.9 hPa South 6 km/h 6 km/h 50 % 0 mm
18:21 -5.6 °C -11.8 °C 34130.9 hPa South 11.9 km/h 11.9 km/h 49 % 0 mm
18:26 -5.4 °C -12 °C 34097 hPa SSE 11.9 km/h 11.9 km/h 47 % 0 mm
18:31 -5.3 °C -12.4 °C 34097 hPa SSW 9 km/h 9 km/h 44 % 0 mm
18:36 -5.6 °C -12.3 °C 34097 hPa South 15 km/h 15 km/h 46 % 0 mm
18:41 -5.9 °C -12.3 °C 34130.9 hPa SE 15 km/h 15 km/h 48 % 0 mm
18:46 -6.7 °C -12.4 °C 34130.9 hPa ENE 23.8 km/h 23.8 km/h 51 % 0 mm
18:51 -6.8 °C -12.3 °C 34130.9 hPa ENE 15 km/h 15 km/h 53 % 0 mm
18:56 -7.1 °C -12.3 °C 34130.9 hPa ESE 26.9 km/h 26.9 km/h 54 % 0 mm
19:01 -7.2 °C -12.2 °C 34130.9 hPa ESE 15 km/h 16.1 km/h 56 % 0 mm
19:06 -7.4 °C -12 °C 34130.9 hPa ESE 17.9 km/h 17.9 km/h 59 % 0 mm
19:11 -7.5 °C -12.2 °C 34130.9 hPa ESE 15.3 km/h 15.3 km/h 58 % 0 mm
19:16 -7.6 °C -12.1 °C 34130.9 hPa ESE 26.4 km/h 26.4 km/h 59 % 0 mm
19:20 -9.2 °C -11.6 °C 34164.7 hPa NE 5.1 km/h 7.7 km/h 76 % 0 mm
19:21 -7.6 °C -12 °C 34130.9 hPa SSW 15 km/h 15 km/h 60 % 0 mm
19:27 -7.6 °C -12 °C 34130.9 hPa ESE 20.9 km/h 20.9 km/h 60 % 0 mm
19:30 -9.2 °C -11.4 °C 34164.7 hPa NE 2.6 km/h 7.7 km/h 77 % 0 mm
19:32 -7.7 °C -12.1 °C 34130.9 hPa ESE 17.9 km/h 17.9 km/h 60 % 0 mm
19:37 -7.6 °C -12 °C 34130.9 hPa SSE 9 km/h 9 km/h 60 % 0 mm
19:40 -9.2 °C -11.4 °C 34130.9 hPa Calm   2.6 km/h 77 % 0 mm
19:42 -7.7 °C -12.2 °C 34130.9 hPa ESE 15 km/h 15 km/h 59 % 0 mm
19:47 -7.7 °C -12.2 °C 34130.9 hPa South 8 km/h 8 km/h 59 % 0 mm
19:50 -9.2 °C -11.3 °C 34164.7 hPa Calm   5.1 km/h 78 % 0 mm
19:52 -7.7 °C -12.3 °C 34130.9 hPa South 11.9 km/h 11.9 km/h 59 % 0 mm
19:53 -7.7 °C -12.3 °C 34130.9 hPa SSE 11.9 km/h 11.9 km/h 59 % 0 mm
19:58 -7.7 °C -12.4 °C 34130.9 hPa SE 9 km/h 9 km/h 58 % 0 mm
20:00 -9.3 °C -11.4 °C 34164.7 hPa Calm   5.1 km/h 78 % 0 mm
20:03 -7.7 °C -12.4 °C 34130.9 hPa ESE 9 km/h 9 km/h 58 % 0 mm
20:08 -7.9 °C -12.4 °C 34130.9 hPa ESE 11.9 km/h 11.9 km/h 59 % 0 mm
20:10 -9.3 °C -11.4 °C 34164.7 hPa West 2.6 km/h 5.1 km/h 78 % 0 mm
20:13 -8.1 °C -12.4 °C 34130.9 hPa East 11.9 km/h 11.9 km/h 60 % 0 mm
20:18 -8.2 °C -12.4 °C 34130.9 hPa ESE 15 km/h 15 km/h 61 % 0 mm
20:20 -9.3 °C -11.4 °C 34130.9 hPa Calm   2.6 km/h 78 % 0 mm
20:23 -8.2 °C -12.2 °C 34130.9 hPa ESE 14 km/h 14 km/h 63 % 0 mm
20:28 -8.3 °C -12.2 °C 34130.9 hPa East 11.9 km/h 11.9 km/h 64 % 0 mm
20:30 -9.3 °C -11.4 °C 34130.9 hPa Calm     78 % 0 mm
20:33 -8.4 °C -11.9 °C 34130.9 hPa ESE 15 km/h 15 km/h 66 % 0 mm
20:38 -8.4 °C -12.1 °C 34130.9 hPa SE 6 km/h 6 km/h 65 % 0 mm
20:40 -9.4 °C -11.5 °C 34130.9 hPa Calm     78 % 0 mm
20:43 -8.4 °C -12 °C 34130.9 hPa South 3.1 km/h 3.1 km/h 66 % 0 mm
20:48 -8.4 °C -12.1 °C 34130.9 hPa WSW 6 km/h 6 km/h 65 % 0 mm
20:50 -9.4 °C -11.5 °C 34130.9 hPa NNE 5.1 km/h 5.1 km/h 78 % 0 mm
20:53 -8.4 °C -12.1 °C 34130.9 hPa Calm     65 % 0 mm
20:58 -8.4 °C -12.1 °C 34130.9 hPa WSW 3.1 km/h   65 % 0 mm
21:00 -9.4 °C -11.4 °C 34130.9 hPa Calm   2.6 km/h 79 % 0 mm
21:03 -8.4 °C -12 °C 34130.9 hPa NE 3.7 km/h   66 % 0 mm
21:08 -8.6 °C -12.1 °C 34130.9 hPa NNE 6 km/h 6 km/h 66 % 0 mm
21:10 -9.4 °C -11.4 °C 34130.9 hPa Calm   5.1 km/h 79 % 0 mm
21:13 -8.6 °C -12.1 °C 34164.7 hPa NE 3.7 km/h 3.7 km/h 67 % 0 mm
21:18 -8.6 °C -12.1 °C 34164.7 hPa NNE 9 km/h 9 km/h 67 % 0 mm
21:20 -9.5 °C -11.6 °C 34130.9 hPa ENE 2.6 km/h 5.1 km/h 78 % 0 mm
21:23 -8.6 °C -12.1 °C 34164.7 hPa NNE 9 km/h 9 km/h 67 % 0 mm
21:25 -8.7 °C -12.1 °C 34130.9 hPa NNE 9 km/h 9 km/h 67 % 0 mm
21:30 -8.6 °C -12.1 °C 34130.9 hPa NE 6 km/h 6 km/h 67 % 0 mm
21:35 -8.7 °C -11.9 °C 34130.9 hPa NE 9 km/h 9 km/h 68 % 0 mm
21:40 -8.7 °C -11.9 °C 34130.9 hPa NNE 11.9 km/h 11.9 km/h 69 % 0 mm
21:46 -8.8 °C -11.9 °C 34130.9 hPa NNE 11.1 km/h 11.1 km/h 69 % 0 mm
21:50 -9.7 °C -11.7 °C 34097 hPa Calm     79 % 0 mm
21:51 -8.8 °C -11.9 °C 34130.9 hPa ENE 11.9 km/h 11.9 km/h 69 % 0 mm
21:56 -8.8 °C -11.8 °C 34097 hPa ESE 11.9 km/h 11.9 km/h 71 % 0 mm
22:00 -9.7 °C -11.7 °C 34097 hPa Calm     79 % 0 mm
22:01 -8.8 °C -11.8 °C 34097 hPa ENE 15 km/h 15 km/h 71 % 0 mm
22:06 -8.9 °C -11.8 °C 34097 hPa ESE 15 km/h 15 km/h 71 % 0 mm
22:10 -9.7 °C -11.7 °C 34097 hPa East 2.6 km/h 2.6 km/h 79 % 0 mm
22:12 -8.9 °C -11.8 °C 34130.9 hPa ENE 15 km/h 15 km/h 72 % 0 mm
22:17 -8.9 °C -11.6 °C 34130.9 hPa ESE 11.9 km/h 11.9 km/h 73 % 0 mm
22:20 -9.7 °C -11.7 °C 34097 hPa Calm   2.6 km/h 79 % 0 mm
22:22 -9 °C -11.7 °C 34130.9 hPa East 11.9 km/h 12.2 km/h 73 % 0 mm
22:27 -9 °C -11.6 °C 34130.9 hPa ESE 17.9 km/h 17.9 km/h 74 % 0 mm
22:30 -9.7 °C -11.7 °C 34097 hPa Calm   5.1 km/h 79 % 0 mm
22:32 -9.1 °C -11.6 °C 34130.9 hPa East 15 km/h 15 km/h 74 % 0 mm
22:37 -9.1 °C -11.4 °C 34130.9 hPa ENE 15 km/h 15 km/h 76 % 0 mm
22:40 -9.8 °C -11.8 °C 34063.2 hPa West 2.6 km/h 5.1 km/h 79 % 0 mm
22:42 -9.1 °C -11.4 °C 34130.9 hPa East 11.9 km/h 11.9 km/h 76 % 0 mm
22:47 -9.1 °C -11.4 °C 34130.9 hPa East 9 km/h 9 km/h 76 % 0 mm
22:50 -10 °C -11.9 °C 34097 hPa SW 2.6 km/h 7.7 km/h 80 % 0 mm
22:52 -9.1 °C -11.4 °C 34130.9 hPa ENE 7.6 km/h 7.6 km/h 76 % 0 mm
22:57 -9.1 °C -11.4 °C 34130.9 hPa ENE 9 km/h 9 km/h 76 % 0 mm
23:00 -10 °C -11.9 °C 34097 hPa SW 2.6 km/h 5.1 km/h 80 % 0 mm
23:03 -9.1 °C -11.4 °C 34130.9 hPa Calm     76 % 0 mm
23:08 -9.1 °C -11.4 °C 34130.9 hPa Calm     76 % 0 mm
23:10 -10 °C -11.9 °C 34097 hPa Calm   2.6 km/h 80 % 0 mm
23:13 -9.1 °C -11.4 °C 34164.7 hPa Calm     76 % 0 mm
23:18 -9.1 °C -11.4 °C 34164.7 hPa SE 3.1 km/h 3.1 km/h 76 % 0 mm
23:20 -10 °C -11.9 °C 34097 hPa Calm   2.6 km/h 80 % 0 mm
23:23 -9.2 °C -11.5 °C 34164.7 hPa East 11.9 km/h 11.9 km/h 76 % 0 mm
23:28 -9.1 °C -11.4 °C 34164.7 hPa East 7.6 km/h 7.6 km/h 76 % 0 mm
23:30 -10.2 °C -12.1 °C 34097 hPa West 2.6 km/h 5.1 km/h 80 % 0 mm
23:33 -9.2 °C -11.5 °C 34164.7 hPa ENE 6 km/h 6 km/h 76 % 0 mm
23:38 -9.2 °C -11.4 °C 34164.7 hPa NE 6 km/h 6 km/h 77 % 0 mm
23:40 -10.2 °C -11.9 °C 34097 hPa West 2.6 km/h 5.1 km/h 81 % 0 mm
23:43 -9.2 °C -11.5 °C 34164.7 hPa NNE 6 km/h 6 km/h 76 % 0 mm
23:48 -9.2 °C -11.5 °C 34164.7 hPa NE 3.1 km/h 3.7 km/h 76 % 0 mm
23:50 -10.2 °C -12 °C 34063.2 hPa North 2.6 km/h 5.1 km/h 81 % 0 mm
23:53 -9.2 °C -11.5 °C 34164.7 hPa NNE 6 km/h 6 km/h 76 % 0 mm
23:59 -9.2 °C -11.5 °C 34164.7 hPa NNE 6 km/h 6 km/h 76 % 0 mm
Meteo Sesrovires
Elogis d' Weather Underground - 2 mb

Guio original per  Jim McMurry - jmcmurry@mwt.net Adaptat per a la plantilla per  Wim van der Kuil - Leuven-Template.eu

Trobareu la nostra informacio del temps tambe a:

Weather Underground

AWEKAS